Aeroporto :
LOGIN :

Iscrizione | Disclaimer

   EN    FR    IT 

 










Sommario :    VFR   VFR Marginale   IFR   IFR Intensivo   IFR Molto Intensivo
Visibilità : 
Base nubi : 
>= 8 km
>= 3000ft
5 / 8 km
1000 / 3000 ft
1500m / 5 km
500 / 1000 ft
800 / 1500m
200 / 500 ft
< 800m
< 200 ft
Simboli :   Temporali  Nebbia  Neve Forte  Precipitazioni Forti  Vento > 20 kt
SIGMETs :   Varie  Temporali  Ghiacco  Turbolenza  Onda orograficha  Ceneri Vulcaniche






- Altitudine del aeroporto : 1776 ft
- Codice IATA : BWK


LDSB - Bol

ULTIMO METAR :
  • 190900Z 07004KT 250V130 CAVOK 23/08 Q1020

METARs OBSOLETI :
  • 190830Z VRB03KT CAVOK 22/08 Q1020
  • 190800Z 05005KT 030V120 CAVOK 21/08 Q1020
  • 190730Z 05005KT CAVOK 20/08 Q1020
  • 190700Z 05008KT CAVOK 20/08 Q1020
  • 190630Z 04007KT CAVOK 20/08 Q1019

TAF TAF LDSB
Valido dal 19 a 06 ore il 20 a 06 ore UTC


190558Z 1906/2006 VRB02KT CAVOK TX28/1912Z TN18/1906Z
BECMG 1909/1911 20008KT
BECMG 1916/1918 VRB02KT



MetMap, La meteo Aeronautica in un colpo d'occhio ! - Copyright ORBIFLY Dicembre 2007 - Disclaimer

ORBIFLY MET'MAP TEAM :

Programmazione e sviluppo : Alexandra Zaïnal
Concezione : Baudouin d'Aumeries
Aiuto per la programmazione : Marc-Olivier Méhu
Supporto tecnico e logistico : Manuel Goepfert
Aiuto per la traduzione : Arnaldo La Scala

Contatto : metmap@orbifly.com




FONTI E CREDITI :

   NOAA